Zottegem, Belgium

3:52 PM CET on February 28, 2017 (GMT +0100)
Pelgrim | | Change Station

Elev 111 ft 50.94 °N, 3.79 °E | Updated 3 minutes ago

Mostly Cloudy
Mostly Cloudy
41.2 °F
Feels Like 41 °F
N
0.6
Wind Variable Wind from NNW
Gusts 1.2 mph

Today
High -- | Low -- °F
--% Chance of Precip.
Yesterday
High -- | Low -- °F
Precip. -- in
Pressure 29.27 in
Visibility 6.2 miles
Clouds Few 600 ft
Scattered Clouds 800 ft
Mostly Cloudy 1900 ft
Windchill 41 °F
Dew Point 37 °F
Humidity 86%
Rainfall 0.15 in
Snow Depth Not available.
7:31 AM 6:24 PM
Waxing Crescent, 5% visible
SPECI EBCV 281434Z AUTO 26013KT 9999 FEW006/// SCT008/// BKN019/// 04/03 Q0991 GRN
Pressure 29.27 in
Visibility 6.2 miles
Clouds Few 600 ft
Scattered Clouds 800 ft
Mostly Cloudy 1900 ft
Windchill 41 °F
Dew Point 37 °F
Humidity 86%
Rainfall 0.15 in
Snow Depth Not available.
7:31 AM 6:24 PM
Waxing Crescent, 5% visible
SPECI EBCV 281434Z AUTO 26013KT 9999 FEW006/// SCT008/// BKN019/// 04/03 Q0991 GRN

Get Your Daily Forecast Email!

Thanks for signing up!

Be on the lookout for a verification email in your inbox.

You'll start receiving the daily forecast at 8 AM.

×

10-Day Weather Forecast

×

Almanac

Astronomy

Feb. 28, 2017 Rise Set
Actual Time
Civil Twilight
Nautical Twilight
Astronomical Twilight
Moon
Length of Visible Light
Length of Day
Tomorrow will be .
, % of the Moon is Illuminated

Today's Extremes

Country Highs Country Lows

Community

WunderPhotos

Upload Photos

1,962,540 photos uploaded!

WunderBlog® & News

Nearby

Air Quality

  Air Quality AQ Index Pollutant
Not available.

Snow Depth

Station Depth Elevation

Earthquake Activity

City Distance Mag. Time & Date
Minimum magnitude displayed is 2.5.

Coastal Water Temperatures

Place Temperature

Stations

Nearby Weather Stations

Station Location Temp. Windchill Dew Point Humidity Wind Precip. Elev Updated Type